sensor_id;sensor_type;location;lat;lon;timestamp;temperature;humidity
10344;DHT22;5217;43.960;10.954;2022-10-18T00:02:04;22.60;99.90
10344;DHT22;5217;43.960;10.954;2022-10-18T00:04:32;22.60;99.90
10344;DHT22;5217;43.960;10.954;2022-10-18T00:07:01;22.60;99.90
10344;DHT22;5217;43.960;10.954;2022-10-18T00:09:29;22.60;99.90
10344;DHT22;5217;43.960;10.954;2022-10-18T00:11:59;22.50;99.90
10344;DHT22;5217;43.960;10.954;2022-10-18T00:14:27;22.50;99.90
10344;DHT22;5217;43.960;10.954;2022-10-18T00:16:56;22.50;99.90
10344;DHT22;5217;43.960;10.954;2022-10-18T00:19:24;22.50;99.90
10344;DHT22;5217;43.960;10.954;2022-10-18T00:21:55;22.50;99.90
10344;DHT22;5217;43.960;10.954;2022-10-18T00:24:23;22.50;99.90
10344;DHT22;5217;43.960;10.954;2022-10-18T00:26:52;22.50;99.90
10344;DHT22;5217;43.960;10.954;2022-10-18T00:29:21;22.50;99.90
10344;DHT22;5217;43.960;10.954;2022-10-18T00:31:50;22.50;99.90
10344;DHT22;5217;43.960;10.954;2022-10-18T00:34:18;22.40;99.90
10344;DHT22;5217;43.960;10.954;2022-10-18T00:36:47;22.40;99.90
10344;DHT22;5217;43.960;10.954;2022-10-18T00:39:17;22.40;99.90
10344;DHT22;5217;43.960;10.954;2022-10-18T00:41:46;22.40;99.90
10344;DHT22;5217;43.960;10.954;2022-10-18T00:47:22;22.40;99.90
10344;DHT22;5217;43.960;10.954;2022-10-18T00:49:52;22.40;99.90
10344;DHT22;5217;43.960;10.954;2022-10-18T00:52:26;22.40;99.90
10344;DHT22;5217;43.960;10.954;2022-10-18T00:54:57;22.30;99.90
10344;DHT22;5217;43.960;10.954;2022-10-18T00:57:25;22.30;99.90
10344;DHT22;5217;43.960;10.954;2022-10-18T00:59:54;22.30;99.90
10344;DHT22;5217;43.960;10.954;2022-10-18T01:02:24;22.30;99.90
10344;DHT22;5217;43.960;10.954;2022-10-18T01:04:53;22.30;99.90
10344;DHT22;5217;43.960;10.954;2022-10-18T01:07:37;22.30;99.90
10344;DHT22;5217;43.960;10.954;2022-10-18T01:10:19;22.20;99.90
10344;DHT22;5217;43.960;10.954;2022-10-18T01:12:57;22.20;99.90
10344;DHT22;5217;43.960;10.954;2022-10-18T01:15:31;22.20;99.90
10344;DHT22;5217;43.960;10.954;2022-10-18T01:18:08;22.20;99.90
10344;DHT22;5217;43.960;10.954;2022-10-18T01:20:58;22.20;99.90
10344;DHT22;5217;43.960;10.954;2022-10-18T01:23:41;22.20;99.90
10344;DHT22;5217;43.960;10.954;2022-10-18T01:26:23;22.10;99.90
10344;DHT22;5217;43.960;10.954;2022-10-18T01:28:59;22.10;99.90
10344;DHT22;5217;43.960;10.954;2022-10-18T01:31:32;22.10;99.90
10344;DHT22;5217;43.960;10.954;2022-10-18T01:34:05;22.10;99.90
10344;DHT22;5217;43.960;10.954;2022-10-18T01:36:38;22.10;99.90
10344;DHT22;5217;43.960;10.954;2022-10-18T01:39:10;22.10;99.90
10344;DHT22;5217;43.960;10.954;2022-10-18T01:41:41;22.10;99.90
10344;DHT22;5217;43.960;10.954;2022-10-18T01:44:16;22.10;99.90
10344;DHT22;5217;43.960;10.954;2022-10-18T01:46:47;22.00;99.90
10344;DHT22;5217;43.960;10.954;2022-10-18T01:49:17;22.00;99.90
10344;DHT22;5217;43.960;10.954;2022-10-18T01:51:46;22.00;99.90
10344;DHT22;5217;43.960;10.954;2022-10-18T01:54:26;22.00;99.90
10344;DHT22;5217;43.960;10.954;2022-10-18T01:56:59;22.00;99.90
10344;DHT22;5217;43.960;10.954;2022-10-18T01:59:39;22.00;99.90
10344;DHT22;5217;43.960;10.954;2022-10-18T02:02:21;21.90;99.90
10344;DHT22;5217;43.960;10.954;2022-10-18T02:04:58;21.90;99.90
10344;DHT22;5217;43.960;10.954;2022-10-18T02:07:32;21.90;99.90
10344;DHT22;5217;43.960;10.954;2022-10-18T02:10:08;21.90;99.90
10344;DHT22;5217;43.960;10.954;2022-10-18T02:12:41;21.90;99.90
10344;DHT22;5217;43.960;10.954;2022-10-18T02:15:13;21.90;99.90
10344;DHT22;5217;43.960;10.954;2022-10-18T02:17:45;21.90;99.90
10344;DHT22;5217;43.960;10.954;2022-10-18T02:20:18;21.90;99.90
10344;DHT22;5217;43.960;10.954;2022-10-18T02:22:49;21.90;99.90
10344;DHT22;5217;43.960;10.954;2022-10-18T02:25:21;21.80;99.90
10344;DHT22;5217;43.960;10.954;2022-10-18T02:27:51;21.80;99.90
10344;DHT22;5217;43.960;10.954;2022-10-18T02:30:23;21.80;99.90
10344;DHT22;5217;43.960;10.954;2022-10-18T02:32:59;21.80;99.90
10344;DHT22;5217;43.960;10.954;2022-10-18T02:35:32;21.80;99.90
10344;DHT22;5217;43.960;10.954;2022-10-18T02:38:03;21.80;99.90
10344;DHT22;5217;43.960;10.954;2022-10-18T02:40:33;21.70;99.90
10344;DHT22;5217;43.960;10.954;2022-10-18T02:43:01;21.70;99.90
10344;DHT22;5217;43.960;10.954;2022-10-18T02:45:32;21.70;99.90
10344;DHT22;5217;43.960;10.954;2022-10-18T02:48:03;21.70;99.90
10344;DHT22;5217;43.960;10.954;2022-10-18T02:50:31;21.70;99.90
10344;DHT22;5217;43.960;10.954;2022-10-18T02:52:59;21.70;99.90
10344;DHT22;5217;43.960;10.954;2022-10-18T02:55:28;21.70;99.90
10344;DHT22;5217;43.960;10.954;2022-10-18T02:57:56;21.70;99.90
10344;DHT22;5217;43.960;10.954;2022-10-18T03:00:24;21.70;99.90
10344;DHT22;5217;43.960;10.954;2022-10-18T03:02:53;21.60;99.90
10344;DHT22;5217;43.960;10.954;2022-10-18T03:05:23;21.60;99.90
10344;DHT22;5217;43.960;10.954;2022-10-18T03:07:51;21.60;99.90
10344;DHT22;5217;43.960;10.954;2022-10-18T03:10:19;21.60;99.90
10344;DHT22;5217;43.960;10.954;2022-10-18T03:12:48;21.60;99.90
10344;DHT22;5217;43.960;10.954;2022-10-18T03:15:16;21.60;99.90
10344;DHT22;5217;43.960;10.954;2022-10-18T03:17:44;21.60;99.90
10344;DHT22;5217;43.960;10.954;2022-10-18T03:20:13;21.60;99.90
10344;DHT22;5217;43.960;10.954;2022-10-18T03:22:43;21.50;99.90
10344;DHT22;5217;43.960;10.954;2022-10-18T03:25:11;21.60;99.90
10344;DHT22;5217;43.960;10.954;2022-10-18T03:27:40;21.50;99.90
10344;DHT22;5217;43.960;10.954;2022-10-18T03:30:09;21.50;99.90
10344;DHT22;5217;43.960;10.954;2022-10-18T03:32:38;21.50;99.90
10344;DHT22;5217;43.960;10.954;2022-10-18T03:35:07;21.50;99.90
10344;DHT22;5217;43.960;10.954;2022-10-18T03:37:36;21.40;99.90
10344;DHT22;5217;43.960;10.954;2022-10-18T03:40:07;21.50;99.90
10344;DHT22;5217;43.960;10.954;2022-10-18T03:42:35;21.50;99.90
10344;DHT22;5217;43.960;10.954;2022-10-18T03:45:05;21.40;99.90
10344;DHT22;5217;43.960;10.954;2022-10-18T03:47:33;21.40;99.90
10344;DHT22;5217;43.960;10.954;2022-10-18T03:50:02;21.40;99.90
10344;DHT22;5217;43.960;10.954;2022-10-18T03:52:31;21.40;99.90
10344;DHT22;5217;43.960;10.954;2022-10-18T03:54:59;21.40;99.90
10344;DHT22;5217;43.960;10.954;2022-10-18T03:57:29;21.40;99.90
10344;DHT22;5217;43.960;10.954;2022-10-18T03:59:58;21.40;99.90
10344;DHT22;5217;43.960;10.954;2022-10-18T04:02:26;21.40;99.90
10344;DHT22;5217;43.960;10.954;2022-10-18T04:04:55;21.40;99.90
10344;DHT22;5217;43.960;10.954;2022-10-18T04:07:24;21.40;99.90
10344;DHT22;5217;43.960;10.954;2022-10-18T04:09:53;21.40;99.90
10344;DHT22;5217;43.960;10.954;2022-10-18T04:12:21;21.40;99.90
10344;DHT22;5217;43.960;10.954;2022-10-18T04:14:51;21.30;99.90
10344;DHT22;5217;43.960;10.954;2022-10-18T04:17:21;21.30;99.90
10344;DHT22;5217;43.960;10.954;2022-10-18T04:19:49;21.30;99.90
10344;DHT22;5217;43.960;10.954;2022-10-18T04:22:18;21.30;99.90
10344;DHT22;5217;43.960;10.954;2022-10-18T04:24:46;21.30;99.90
10344;DHT22;5217;43.960;10.954;2022-10-18T04:27:15;21.30;99.90
10344;DHT22;5217;43.960;10.954;2022-10-18T04:29:43;21.30;99.90
10344;DHT22;5217;43.960;10.954;2022-10-18T04:32:13;21.20;99.90
10344;DHT22;5217;43.960;10.954;2022-10-18T04:34:41;21.30;99.90
10344;DHT22;5217;43.960;10.954;2022-10-18T04:37:14;21.30;99.90
10344;DHT22;5217;43.960;10.954;2022-10-18T04:39:43;21.20;99.90
10344;DHT22;5217;43.960;10.954;2022-10-18T04:42:19;21.20;99.90
10344;DHT22;5217;43.960;10.954;2022-10-18T04:44:47;21.20;99.90
10344;DHT22;5217;43.960;10.954;2022-10-18T04:47:17;21.20;99.90
10344;DHT22;5217;43.960;10.954;2022-10-18T04:49:46;21.20;99.90
10344;DHT22;5217;43.960;10.954;2022-10-18T04:52:14;21.20;99.90
10344;DHT22;5217;43.960;10.954;2022-10-18T04:54:43;21.20;99.90
10344;DHT22;5217;43.960;10.954;2022-10-18T04:57:11;21.10;99.90
10344;DHT22;5217;43.960;10.954;2022-10-18T04:59:39;21.10;99.90
10344;DHT22;5217;43.960;10.954;2022-10-18T05:02:08;21.20;99.90
10344;DHT22;5217;43.960;10.954;2022-10-18T05:04:37;21.10;99.90
10344;DHT22;5217;43.960;10.954;2022-10-18T05:07:06;21.10;99.90
10344;DHT22;5217;43.960;10.954;2022-10-18T05:09:34;21.10;99.90
10344;DHT22;5217;43.960;10.954;2022-10-18T05:12:02;21.10;99.90
10344;DHT22;5217;43.960;10.954;2022-10-18T05:14:31;21.10;99.90
10344;DHT22;5217;43.960;10.954;2022-10-18T05:16:59;21.10;99.90
10344;DHT22;5217;43.960;10.954;2022-10-18T05:19:28;21.00;99.90
10344;DHT22;5217;43.960;10.954;2022-10-18T05:21:58;21.10;99.90
10344;DHT22;5217;43.960;10.954;2022-10-18T05:24:26;21.00;99.90
10344;DHT22;5217;43.960;10.954;2022-10-18T05:26:55;21.00;99.90
10344;DHT22;5217;43.960;10.954;2022-10-18T05:29:23;21.00;99.90
10344;DHT22;5217;43.960;10.954;2022-10-18T05:31:56;21.00;99.90
10344;DHT22;5217;43.960;10.954;2022-10-18T05:34:25;21.00;99.90
10344;DHT22;5217;43.960;10.954;2022-10-18T05:36:59;21.00;99.90
10344;DHT22;5217;43.960;10.954;2022-10-18T05:39:28;21.00;99.90
10344;DHT22;5217;43.960;10.954;2022-10-18T05:41:56;20.90;99.90
10344;DHT22;5217;43.960;10.954;2022-10-18T05:44:25;20.90;99.90
10344;DHT22;5217;43.960;10.954;2022-10-18T05:46:54;20.90;99.90
10344;DHT22;5217;43.960;10.954;2022-10-18T05:49:22;20.90;99.90
10344;DHT22;5217;43.960;10.954;2022-10-18T05:51:51;20.90;99.90
10344;DHT22;5217;43.960;10.954;2022-10-18T05:54:20;20.80;99.90
10344;DHT22;5217;43.960;10.954;2022-10-18T05:56:49;20.80;99.90
10344;DHT22;5217;43.960;10.954;2022-10-18T05:59:17;20.90;99.90
10344;DHT22;5217;43.960;10.954;2022-10-18T06:01:45;20.80;99.90
10344;DHT22;5217;43.960;10.954;2022-10-18T06:04:14;20.90;99.90
10344;DHT22;5217;43.960;10.954;2022-10-18T06:06:43;20.80;99.90
10344;DHT22;5217;43.960;10.954;2022-10-18T06:09:12;20.90;99.90
10344;DHT22;5217;43.960;10.954;2022-10-18T06:11:41;20.90;99.90
10344;DHT22;5217;43.960;10.954;2022-10-18T06:14:10;20.80;99.90
10344;DHT22;5217;43.960;10.954;2022-10-18T06:16:38;20.80;99.90
10344;DHT22;5217;43.960;10.954;2022-10-18T06:19:06;20.80;99.90
10344;DHT22;5217;43.960;10.954;2022-10-18T06:21:35;20.80;99.90
10344;DHT22;5217;43.960;10.954;2022-10-18T06:24:03;20.80;99.90
10344;DHT22;5217;43.960;10.954;2022-10-18T06:26:32;20.80;99.90
10344;DHT22;5217;43.960;10.954;2022-10-18T06:29:02;20.80;99.90
10344;DHT22;5217;43.960;10.954;2022-10-18T06:31:30;20.80;99.90
10344;DHT22;5217;43.960;10.954;2022-10-18T06:33:59;20.80;99.90
10344;DHT22;5217;43.960;10.954;2022-10-18T06:36:27;20.80;99.90
10344;DHT22;5217;43.960;10.954;2022-10-18T06:38:55;20.80;99.90
10344;DHT22;5217;43.960;10.954;2022-10-18T06:41:25;20.80;99.90
10344;DHT22;5217;43.960;10.954;2022-10-18T06:43:54;20.80;99.90
10344;DHT22;5217;43.960;10.954;2022-10-18T06:46:26;20.80;99.90
10344;DHT22;5217;43.960;10.954;2022-10-18T06:48:54;20.80;99.90
10344;DHT22;5217;43.960;10.954;2022-10-18T06:51:23;20.80;99.90
10344;DHT22;5217;43.960;10.954;2022-10-18T06:53:51;20.80;99.90
10344;DHT22;5217;43.960;10.954;2022-10-18T06:56:40;20.70;99.90
10344;DHT22;5217;43.960;10.954;2022-10-18T06:59:08;20.80;99.90
10344;DHT22;5217;43.960;10.954;2022-10-18T07:01:38;20.80;99.90
10344;DHT22;5217;43.960;10.954;2022-10-18T07:04:06;20.80;99.90
10344;DHT22;5217;43.960;10.954;2022-10-18T07:06:35;20.80;99.90
10344;DHT22;5217;43.960;10.954;2022-10-18T07:09:03;20.80;99.90
10344;DHT22;5217;43.960;10.954;2022-10-18T07:11:31;20.80;99.90
10344;DHT22;5217;43.960;10.954;2022-10-18T07:14:01;20.80;99.90
10344;DHT22;5217;43.960;10.954;2022-10-18T07:16:31;20.80;99.90
10344;DHT22;5217;43.960;10.954;2022-10-18T07:19:01;20.80;99.90
10344;DHT22;5217;43.960;10.954;2022-10-18T07:21:30;20.80;99.90
10344;DHT22;5217;43.960;10.954;2022-10-18T07:23:58;20.80;99.90
10344;DHT22;5217;43.960;10.954;2022-10-18T07:26:28;20.90;99.90
10344;DHT22;5217;43.960;10.954;2022-10-18T07:28:58;20.80;99.90
10344;DHT22;5217;43.960;10.954;2022-10-18T07:31:28;20.90;99.90
10344;DHT22;5217;43.960;10.954;2022-10-18T07:33:57;20.90;99.90
10344;DHT22;5217;43.960;10.954;2022-10-18T07:36:26;20.90;99.90
10344;DHT22;5217;43.960;10.954;2022-10-18T07:38:55;20.90;99.90
10344;DHT22;5217;43.960;10.954;2022-10-18T07:41:23;21.00;99.90
10344;DHT22;5217;43.960;10.954;2022-10-18T07:43:52;20.90;99.90
10344;DHT22;5217;43.960;10.954;2022-10-18T07:46:21;21.00;99.90
10344;DHT22;5217;43.960;10.954;2022-10-18T07:48:50;21.10;99.90
10344;DHT22;5217;43.960;10.954;2022-10-18T07:51:19;21.00;99.90
10344;DHT22;5217;43.960;10.954;2022-10-18T07:53:49;21.10;99.90
10344;DHT22;5217;43.960;10.954;2022-10-18T07:56:19;21.10;99.90
10344;DHT22;5217;43.960;10.954;2022-10-18T07:58:48;21.10;99.90
10344;DHT22;5217;43.960;10.954;2022-10-18T08:01:19;21.10;99.90
10344;DHT22;5217;43.960;10.954;2022-10-18T08:03:48;21.10;99.90
10344;DHT22;5217;43.960;10.954;2022-10-18T08:06:18;21.20;99.90
10344;DHT22;5217;43.960;10.954;2022-10-18T08:08:48;21.20;99.90
10344;DHT22;5217;43.960;10.954;2022-10-18T08:11:19;21.20;99.90
10344;DHT22;5217;43.960;10.954;2022-10-18T08:13:48;21.30;99.90
10344;DHT22;5217;43.960;10.954;2022-10-18T08:16:19;21.30;99.90
10344;DHT22;5217;43.960;10.954;2022-10-18T08:18:48;21.40;99.90
10344;DHT22;5217;43.960;10.954;2022-10-18T08:21:17;21.40;99.90
10344;DHT22;5217;43.960;10.954;2022-10-18T08:23:46;21.40;99.90
10344;DHT22;5217;43.960;10.954;2022-10-18T08:26:18;21.40;99.90
10344;DHT22;5217;43.960;10.954;2022-10-18T08:28:47;21.40;99.90
10344;DHT22;5217;43.960;10.954;2022-10-18T08:31:24;21.40;99.90
10344;DHT22;5217;43.960;10.954;2022-10-18T08:33:53;21.50;99.90
10344;DHT22;5217;43.960;10.954;2022-10-18T08:36:23;21.50;99.90
10344;DHT22;5217;43.960;10.954;2022-10-18T08:38:51;21.60;99.90
10344;DHT22;5217;43.960;10.954;2022-10-18T08:41:35;21.60;99.90
10344;DHT22;5217;43.960;10.954;2022-10-18T08:44:13;21.60;99.90
10344;DHT22;5217;43.960;10.954;2022-10-18T08:46:45;21.60;99.90
10344;DHT22;5217;43.960;10.954;2022-10-18T08:49:21;21.70;99.90
10344;DHT22;5217;43.960;10.954;2022-10-18T08:51:53;21.70;99.90
10344;DHT22;5217;43.960;10.954;2022-10-18T08:54:26;21.80;99.90
10344;DHT22;5217;43.960;10.954;2022-10-18T08:57:00;21.80;99.90
10344;DHT22;5217;43.960;10.954;2022-10-18T08:59:33;21.80;99.90
10344;DHT22;5217;43.960;10.954;2022-10-18T09:02:14;21.90;99.90
10344;DHT22;5217;43.960;10.954;2022-10-18T09:04:49;21.90;99.90
10344;DHT22;5217;43.960;10.954;2022-10-18T09:07:41;22.00;99.90
10344;DHT22;5217;43.960;10.954;2022-10-18T09:10:19;22.00;99.90
10344;DHT22;5217;43.960;10.954;2022-10-18T09:13:01;22.10;99.90
10344;DHT22;5217;43.960;10.954;2022-10-18T09:15:39;22.10;99.90
10344;DHT22;5217;43.960;10.954;2022-10-18T09:18:27;22.20;99.90
10344;DHT22;5217;43.960;10.954;2022-10-18T09:20:59;22.20;99.90
10344;DHT22;5217;43.960;10.954;2022-10-18T09:23:35;22.20;99.90
10344;DHT22;5217;43.960;10.954;2022-10-18T09:26:14;22.30;99.90
10344;DHT22;5217;43.960;10.954;2022-10-18T09:28:57;22.30;99.90
10344;DHT22;5217;43.960;10.954;2022-10-18T09:31:38;22.40;99.90
10344;DHT22;5217;43.960;10.954;2022-10-18T09:34:13;22.40;99.90
10344;DHT22;5217;43.960;10.954;2022-10-18T09:36:43;22.40;99.90
10344;DHT22;5217;43.960;10.954;2022-10-18T09:39:14;22.50;99.90
10344;DHT22;5217;43.960;10.954;2022-10-18T09:41:47;22.50;99.90
10344;DHT22;5217;43.960;10.954;2022-10-18T09:44:20;22.50;99.90
10344;DHT22;5217;43.960;10.954;2022-10-18T09:46:54;22.50;99.90
10344;DHT22;5217;43.960;10.954;2022-10-18T09:49:28;22.60;99.90
10344;DHT22;5217;43.960;10.954;2022-10-18T09:51:59;22.70;99.90
10344;DHT22;5217;43.960;10.954;2022-10-18T09:54:32;22.70;99.90
10344;DHT22;5217;43.960;10.954;2022-10-18T09:57:05;22.70;99.90
10344;DHT22;5217;43.960;10.954;2022-10-18T09:59:40;22.80;99.90
10344;DHT22;5217;43.960;10.954;2022-10-18T10:02:13;22.80;99.90
10344;DHT22;5217;43.960;10.954;2022-10-18T10:04:41;22.90;99.90
10344;DHT22;5217;43.960;10.954;2022-10-18T10:07:14;23.00;99.90
10344;DHT22;5217;43.960;10.954;2022-10-18T10:09:46;23.00;99.90
10344;DHT22;5217;43.960;10.954;2022-10-18T10:12:29;23.00;99.90
10344;DHT22;5217;43.960;10.954;2022-10-18T10:15:16;23.10;99.90
10344;DHT22;5217;43.960;10.954;2022-10-18T10:17:54;23.20;99.90
10344;DHT22;5217;43.960;10.954;2022-10-18T10:20:26;23.20;99.90
10344;DHT22;5217;43.960;10.954;2022-10-18T10:23:05;23.30;99.90
10344;DHT22;5217;43.960;10.954;2022-10-18T10:25:36;23.30;99.90
10344;DHT22;5217;43.960;10.954;2022-10-18T10:28:11;23.30;99.90
10344;DHT22;5217;43.960;10.954;2022-10-18T10:30:42;23.40;99.90
10344;DHT22;5217;43.960;10.954;2022-10-18T10:33:33;23.40;99.90
10344;DHT22;5217;43.960;10.954;2022-10-18T10:36:04;23.50;99.90
10344;DHT22;5217;43.960;10.954;2022-10-18T10:38:33;23.60;99.90
10344;DHT22;5217;43.960;10.954;2022-10-18T10:41:02;23.60;99.90
10344;DHT22;5217;43.960;10.954;2022-10-18T10:43:31;23.70;99.90
10344;DHT22;5217;43.960;10.954;2022-10-18T10:46:09;23.70;99.90
10344;DHT22;5217;43.960;10.954;2022-10-18T10:48:45;23.80;99.90
10344;DHT22;5217;43.960;10.954;2022-10-18T10:51:16;23.80;99.90
10344;DHT22;5217;43.960;10.954;2022-10-18T10:53:48;23.80;99.90
10344;DHT22;5217;43.960;10.954;2022-10-18T10:56:23;23.90;99.90
10344;DHT22;5217;43.960;10.954;2022-10-18T10:58:53;23.90;99.90
10344;DHT22;5217;43.960;10.954;2022-10-18T11:01:31;24.00;99.90
10344;DHT22;5217;43.960;10.954;2022-10-18T11:04:02;24.00;99.90
10344;DHT22;5217;43.960;10.954;2022-10-18T11:06:36;24.10;99.90
10344;DHT22;5217;43.960;10.954;2022-10-18T11:09:15;24.20;99.90
10344;DHT22;5217;43.960;10.954;2022-10-18T11:12:07;24.20;99.90
10344;DHT22;5217;43.960;10.954;2022-10-18T11:14:41;24.30;99.90
10344;DHT22;5217;43.960;10.954;2022-10-18T11:17:19;24.40;99.90
10344;DHT22;5217;43.960;10.954;2022-10-18T11:20:00;24.40;99.90
10344;DHT22;5217;43.960;10.954;2022-10-18T11:22:34;24.50;99.90
10344;DHT22;5217;43.960;10.954;2022-10-18T11:25:04;24.50;99.90
10344;DHT22;5217;43.960;10.954;2022-10-18T11:27:35;24.60;99.90
10344;DHT22;5217;43.960;10.954;2022-10-18T11:30:17;24.70;99.90
10344;DHT22;5217;43.960;10.954;2022-10-18T11:32:57;24.70;99.90
10344;DHT22;5217;43.960;10.954;2022-10-18T11:35:36;24.80;99.90
10344;DHT22;5217;43.960;10.954;2022-10-18T11:38:17;24.80;99.90
10344;DHT22;5217;43.960;10.954;2022-10-18T11:40:56;24.90;99.90
10344;DHT22;5217;43.960;10.954;2022-10-18T11:43:35;25.00;99.90
10344;DHT22;5217;43.960;10.954;2022-10-18T11:46:36;25.00;99.90
10344;DHT22;5217;43.960;10.954;2022-10-18T11:49:25;25.10;99.90
10344;DHT22;5217;43.960;10.954;2022-10-18T11:52:03;25.20;99.90
10344;DHT22;5217;43.960;10.954;2022-10-18T11:54:46;25.20;99.90
10344;DHT22;5217;43.960;10.954;2022-10-18T12:00:35;25.40;99.90
10344;DHT22;5217;43.960;10.954;2022-10-18T12:03:30;25.50;99.90
10344;DHT22;5217;43.960;10.954;2022-10-18T12:06:04;25.50;99.90
10344;DHT22;5217;43.960;10.954;2022-10-18T12:08:37;25.60;99.90
10344;DHT22;5217;43.960;10.954;2022-10-18T12:11:12;25.70;99.90
10344;DHT22;5217;43.960;10.954;2022-10-18T12:13:45;25.90;99.90
10344;DHT22;5217;43.960;10.954;2022-10-18T12:16:15;25.90;99.90
10344;DHT22;5217;43.960;10.954;2022-10-18T12:19:11;26.00;99.90
10344;DHT22;5217;43.960;10.954;2022-10-18T12:21:42;26.00;99.90
10344;DHT22;5217;43.960;10.954;2022-10-18T12:24:14;26.10;99.90
10344;DHT22;5217;43.960;10.954;2022-10-18T12:26:45;26.20;99.90
10344;DHT22;5217;43.960;10.954;2022-10-18T12:29:19;26.30;99.90
10344;DHT22;5217;43.960;10.954;2022-10-18T12:31:52;26.30;99.90
10344;DHT22;5217;43.960;10.954;2022-10-18T12:34:29;26.30;99.90
10344;DHT22;5217;43.960;10.954;2022-10-18T12:37:34;26.30;99.90
10344;DHT22;5217;43.960;10.954;2022-10-18T12:40:12;26.40;99.90
10344;DHT22;5217;43.960;10.954;2022-10-18T12:42:48;26.40;99.90
10344;DHT22;5217;43.960;10.954;2022-10-18T12:45:25;26.40;99.90
10344;DHT22;5217;43.960;10.954;2022-10-18T12:47:56;26.50;99.90
10344;DHT22;5217;43.960;10.954;2022-10-18T12:50:30;26.50;99.90
10344;DHT22;5217;43.960;10.954;2022-10-18T12:53:13;26.60;99.90
10344;DHT22;5217;43.960;10.954;2022-10-18T12:55:43;26.50;99.90
10344;DHT22;5217;43.960;10.954;2022-10-18T12:58:28;26.60;99.90
10344;DHT22;5217;43.960;10.954;2022-10-18T13:00:58;26.50;99.90
10344;DHT22;5217;43.960;10.954;2022-10-18T13:03:52;26.50;99.90
10344;DHT22;5217;43.960;10.954;2022-10-18T13:06:22;26.50;99.90
10344;DHT22;5217;43.960;10.954;2022-10-18T13:09:16;26.50;99.90
10344;DHT22;5217;43.960;10.954;2022-10-18T13:11:45;26.60;99.90
10344;DHT22;5217;43.960;10.954;2022-10-18T13:14:41;26.50;99.90
10344;DHT22;5217;43.960;10.954;2022-10-18T13:17:37;26.50;99.90
10344;DHT22;5217;43.960;10.954;2022-10-18T13:20:17;26.60;99.90
10344;DHT22;5217;43.960;10.954;2022-10-18T13:23:03;26.60;99.90
10344;DHT22;5217;43.960;10.954;2022-10-18T13:25:47;26.60;99.90
10344;DHT22;5217;43.960;10.954;2022-10-18T13:28:24;26.60;99.90
10344;DHT22;5217;43.960;10.954;2022-10-18T13:30:58;26.60;99.90
10344;DHT22;5217;43.960;10.954;2022-10-18T13:33:31;26.60;99.90
10344;DHT22;5217;43.960;10.954;2022-10-18T13:36:02;26.70;99.90
10344;DHT22;5217;43.960;10.954;2022-10-18T13:38:44;26.70;99.90
10344;DHT22;5217;43.960;10.954;2022-10-18T13:41:17;26.70;99.90
10344;DHT22;5217;43.960;10.954;2022-10-18T13:47:09;26.60;99.90
10344;DHT22;5217;43.960;10.954;2022-10-18T13:50:02;26.60;99.90
10344;DHT22;5217;43.960;10.954;2022-10-18T13:55:49;26.60;99.90
10344;DHT22;5217;43.960;10.954;2022-10-18T13:58:29;26.60;99.90
10344;DHT22;5217;43.960;10.954;2022-10-18T14:01:08;26.50;99.90
10344;DHT22;5217;43.960;10.954;2022-10-18T14:03:55;26.50;99.90
10344;DHT22;5217;43.960;10.954;2022-10-18T14:06:33;26.40;99.90
10344;DHT22;5217;43.960;10.954;2022-10-18T14:09:07;26.50;99.90
10344;DHT22;5217;43.960;10.954;2022-10-18T14:12:06;26.40;99.90
10344;DHT22;5217;43.960;10.954;2022-10-18T14:14:41;26.40;99.90
10344;DHT22;5217;43.960;10.954;2022-10-18T14:17:20;26.50;99.90
10344;DHT22;5217;43.960;10.954;2022-10-18T14:19:55;26.40;99.90
10344;DHT22;5217;43.960;10.954;2022-10-18T14:22:26;26.40;99.90
10344;DHT22;5217;43.960;10.954;2022-10-18T14:24:58;26.40;99.90
10344;DHT22;5217;43.960;10.954;2022-10-18T14:27:28;26.40;99.90
10344;DHT22;5217;43.960;10.954;2022-10-18T14:30:11;26.40;99.90
10344;DHT22;5217;43.960;10.954;2022-10-18T14:32:43;26.40;99.90
10344;DHT22;5217;43.960;10.954;2022-10-18T14:35:19;26.40;99.90
10344;DHT22;5217;43.960;10.954;2022-10-18T14:38:11;26.40;99.90
10344;DHT22;5217;43.960;10.954;2022-10-18T14:40:41;26.40;99.90
10344;DHT22;5217;43.960;10.954;2022-10-18T14:43:11;26.40;99.90
10344;DHT22;5217;43.960;10.954;2022-10-18T14:45:41;26.30;99.90
10344;DHT22;5217;43.960;10.954;2022-10-18T14:48:15;26.40;99.90
10344;DHT22;5217;43.960;10.954;2022-10-18T14:50:46;26.30;99.90
10344;DHT22;5217;43.960;10.954;2022-10-18T14:53:17;26.30;99.90
10344;DHT22;5217;43.960;10.954;2022-10-18T14:55:55;26.30;99.90
10344;DHT22;5217;43.960;10.954;2022-10-18T14:58:26;26.30;99.90
10344;DHT22;5217;43.960;10.954;2022-10-18T15:00:57;26.30;99.90
10344;DHT22;5217;43.960;10.954;2022-10-18T15:03:26;26.20;99.90
10344;DHT22;5217;43.960;10.954;2022-10-18T15:05:57;26.20;99.90
10344;DHT22;5217;43.960;10.954;2022-10-18T15:08:29;26.20;99.90
10344;DHT22;5217;43.960;10.954;2022-10-18T15:10:59;26.20;99.90
10344;DHT22;5217;43.960;10.954;2022-10-18T15:13:29;26.20;99.90
10344;DHT22;5217;43.960;10.954;2022-10-18T15:16:00;26.20;99.90
10344;DHT22;5217;43.960;10.954;2022-10-18T15:18:29;26.10;99.90
10344;DHT22;5217;43.960;10.954;2022-10-18T15:21:20;26.10;99.90
10344;DHT22;5217;43.960;10.954;2022-10-18T15:23:49;26.10;99.90
10344;DHT22;5217;43.960;10.954;2022-10-18T15:26:22;26.00;99.90
10344;DHT22;5217;43.960;10.954;2022-10-18T15:28:52;26.00;99.90
10344;DHT22;5217;43.960;10.954;2022-10-18T15:31:29;26.00;99.90
10344;DHT22;5217;43.960;10.954;2022-10-18T15:34:08;26.00;99.90
10344;DHT22;5217;43.960;10.954;2022-10-18T15:36:37;26.00;99.90
10344;DHT22;5217;43.960;10.954;2022-10-18T15:39:12;26.00;99.90
10344;DHT22;5217;43.960;10.954;2022-10-18T15:41:45;26.00;99.90
10344;DHT22;5217;43.960;10.954;2022-10-18T15:44:33;25.90;99.90
10344;DHT22;5217;43.960;10.954;2022-10-18T15:47:15;25.90;99.90
10344;DHT22;5217;43.960;10.954;2022-10-18T15:49:52;25.90;99.90
10344;DHT22;5217;43.960;10.954;2022-10-18T15:52:36;25.90;99.90
10344;DHT22;5217;43.960;10.954;2022-10-18T15:55:44;25.90;99.90
10344;DHT22;5217;43.960;10.954;2022-10-18T15:58:18;25.80;99.90
10344;DHT22;5217;43.960;10.954;2022-10-18T16:00:49;25.80;99.90
10344;DHT22;5217;43.960;10.954;2022-10-18T16:03:20;25.80;99.90
10344;DHT22;5217;43.960;10.954;2022-10-18T16:05:53;25.80;99.90
10344;DHT22;5217;43.960;10.954;2022-10-18T16:08:25;25.80;99.90
10344;DHT22;5217;43.960;10.954;2022-10-18T16:10:54;25.80;99.90
10344;DHT22;5217;43.960;10.954;2022-10-18T16:13:23;25.70;99.90
10344;DHT22;5217;43.960;10.954;2022-10-18T16:15:52;25.70;99.90
10344;DHT22;5217;43.960;10.954;2022-10-18T16:18:24;25.70;99.90
10344;DHT22;5217;43.960;10.954;2022-10-18T16:20:53;25.60;99.90